Time;durP1;ratioP1;P1;durP2;ratioP2;P2;SDS_P1;SDS_P2;PMS_P1;PMS_P2;Temp;Humidity;BMP_temperature;BMP_pressure;BME280_temperature;BME280_humidity;BME280_pressure;Samples;Min_cycle;Max_cycle;Signal;HPM_P1;HPM_P2
2022/01/05 00:01:42;;;;;;;175.73;90.65;;;;;;;;;;5093819;28;20060;-66
2022/01/05 00:04:10;;;;;;;183.07;94.13;;;;;;;;;;5093583;28;20358;-67
2022/01/05 00:06:58;;;;;;;190.52;98.72;;;;;;;;;;5093532;28;20028;-66
2022/01/05 00:09:24;;;;;;;178.30;88.85;;;;;;;;;;5093551;28;20031;-66
2022/01/05 00:11:50;;;;;;;178.05;88.38;;;;;;;;;;5093395;28;20052;-68
2022/01/05 00:14:16;;;;;;;174.30;87.97;;;;;;;;;;5093421;28;20054;-64
2022/01/05 00:16:43;;;;;;;174.68;86.13;;;;;;;;;;5093426;28;20389;-66
2022/01/05 00:19:09;;;;;;;169.35;83.15;;;;;;;;;;5091638;28;20096;-66
2022/01/05 00:21:35;;;;;;;185.85;92.28;;;;;;;;;;5093372;28;20120;-66
2022/01/05 00:24:02;;;;;;;203.27;99.32;;;;;;;;;;5092038;28;20047;-66
2022/01/05 00:26:28;;;;;;;216.02;100.78;;;;;;;;;;5093252;28;20028;-67
2022/01/05 00:28:54;;;;;;;170.73;85.07;;;;;;;;;;5092774;28;20384;-67
2022/01/05 00:31:21;;;;;;;133.98;66.93;;;;;;;;;;5092709;28;20114;-67
2022/01/05 00:33:47;;;;;;;174.75;86.40;;;;;;;;;;5093224;28;20443;-67
2022/01/05 00:36:14;;;;;;;150.32;74.80;;;;;;;;;;5093150;28;20073;-68
2022/01/05 00:38:40;;;;;;;168.52;83.07;;;;;;;;;;5092981;28;20107;-67
2022/01/05 00:41:06;;;;;;;188.30;88.80;;;;;;;;;;5093135;28;20055;-67
2022/01/05 00:43:33;;;;;;;179.95;87.15;;;;;;;;;;5093074;28;20024;-68
2022/01/05 00:45:59;;;;;;;180.95;90.43;;;;;;;;;;5091778;28;20419;-67
2022/01/05 00:48:25;;;;;;;172.73;86.07;;;;;;;;;;5093141;28;20489;-67
2022/01/05 00:50:52;;;;;;;178.43;89.30;;;;;;;;;;5093318;28;20369;-68
2022/01/05 00:53:18;;;;;;;165.05;83.05;;;;;;;;;;5092981;28;20032;-67
2022/01/05 00:55:44;;;;;;;162.75;76.30;;;;;;;;;;5091950;28;20460;-67
2022/01/05 00:58:10;;;;;;;140.13;69.90;;;;;;;;;;5092991;28;20056;-67
2022/01/05 01:00:37;;;;;;;122.07;59.22;;;;;;;;;;5092993;28;20028;-66
2022/01/05 01:03:03;;;;;;;131.48;64.15;;;;;;;;;;5092959;28;20028;-67
2022/01/05 01:05:29;;;;;;;79.55;41.85;;;;;;;;;;5093173;28;20111;-66
2022/01/05 01:07:55;;;;;;;107.47;52.42;;;;;;;;;;5092883;28;20071;-67
2022/01/05 01:10:22;;;;;;;107.43;53.35;;;;;;;;;;5092743;28;20073;-67
2022/01/05 01:12:48;;;;;;;97.78;47.85;;;;;;;;;;5092716;28;20060;-67
2022/01/05 01:15:14;;;;;;;96.00;46.78;;;;;;;;;;5091504;28;20080;-67
2022/01/05 01:17:41;;;;;;;81.88;43.45;;;;;;;;;;5090920;28;20041;-68
2022/01/05 01:20:07;;;;;;;85.68;42.20;;;;;;;;;;5092484;28;20407;-66
2022/01/05 01:22:35;;;;;;;78.57;41.83;;;;;;;;;;5092753;28;20041;-68
2022/01/05 01:25:01;;;;;;;77.32;41.70;;;;;;;;;;5092748;28;20111;-68
2022/01/05 01:27:28;;;;;;;81.22;40.85;;;;;;;;;;5092759;28;20028;-66
2022/01/05 01:29:54;;;;;;;75.60;41.13;;;;;;;;;;5092741;28;20480;-67
2022/01/05 01:32:20;;;;;;;87.50;46.00;;;;;;;;;;5091249;28;20487;-66
2022/01/05 01:34:47;;;;;;;101.13;49.22;;;;;;;;;;5092654;28;20130;-67
2022/01/05 01:37:13;;;;;;;99.50;49.20;;;;;;;;;;5092879;28;20086;-66
2022/01/05 01:39:39;;;;;;;90.05;46.75;;;;;;;;;;5091320;28;20044;-67
2022/01/05 01:42:05;;;;;;;95.95;47.30;;;;;;;;;;5095187;28;20028;-66
2022/01/05 01:44:32;;;;;;;92.32;45.97;;;;;;;;;;5096242;28;20029;-66
2022/01/05 01:46:58;;;;;;;86.13;40.80;;;;;;;;;;5096265;28;20532;-67
2022/01/05 01:49:24;;;;;;;77.82;39.35;;;;;;;;;;5096239;28;20107;-67
2022/01/05 01:51:51;;;;;;;77.00;39.28;;;;;;;;;;5096249;28;20024;-67
2022/01/05 01:54:17;;;;;;;67.55;37.15;;;;;;;;;;5096078;28;20118;-67
2022/01/05 01:56:46;;;;;;;71.03;38.20;;;;;;;;;;5096336;28;20024;-68
2022/01/05 01:59:12;;;;;;;78.57;40.95;;;;;;;;;;5095811;28;20089;-69
2022/01/05 02:01:40;;;;;;;76.35;37.75;;;;;;;;;;5095917;28;20103;-68
2022/01/05 02:04:06;;;;;;;77.53;40.35;;;;;;;;;;5095889;28;20048;-69
2022/01/05 02:06:33;;;;;;;85.10;40.10;;;;;;;;;;5095846;28;20032;-68
2022/01/05 02:09:00;;;;;;;78.47;40.70;;;;;;;;;;5095863;28;20031;-68
2022/01/05 02:11:27;;;;;;;81.15;39.45;;;;;;;;;;5095826;28;20032;-69
2022/01/05 02:13:53;;;;;;;73.15;38.13;;;;;;;;;;5094450;28;20111;-70
2022/01/05 02:16:21;;;;;;;70.97;36.60;;;;;;;;;;5094378;28;20062;-69
2022/01/05 02:18:59;;;;;;;72.53;35.97;;;;;;;;;;5095059;28;20061;-70
2022/01/05 02:21:26;;;;;;;68.57;35.20;;;;;;;;;;5094282;28;20043;-69
2022/01/05 02:23:53;;;;;;;62.38;33.17;;;;;;;;;;5094215;28;20048;-66
2022/01/05 02:26:19;;;;;;;61.17;31.58;;;;;;;;;;5095481;28;20022;-66
2022/01/05 02:28:45;;;;;;;60.88;30.30;;;;;;;;;;5095374;28;20032;-67
2022/01/05 02:31:12;;;;;;;55.33;28.50;;;;;;;;;;5095413;28;20036;-67
2022/01/05 02:33:41;;;;;;;51.20;25.77;;;;;;;;;;5095349;28;20032;-67
2022/01/05 02:36:08;;;;;;;45.78;24.20;;;;;;;;;;5095309;28;20020;-67
2022/01/05 02:38:34;;;;;;;45.60;23.95;;;;;;;;;;5095286;28;20024;-67
2022/01/05 02:41:08;;;;;;;42.90;21.73;;;;;;;;;;5095519;28;20095;-67
2022/01/05 02:43:35;;;;;;;40.15;20.70;;;;;;;;;;5095162;28;20074;-68
2022/01/05 02:46:01;;;;;;;41.53;20.60;;;;;;;;;;5095063;28;20024;-68
2022/01/05 02:48:28;;;;;;;37.55;19.73;;;;;;;;;;5093781;28;20077;-68
2022/01/05 02:50:57;;;;;;;39.67;19.45;;;;;;;;;;5095066;28;20342;-68
2022/01/05 02:53:24;;;;;;;38.47;19.75;;;;;;;;;;5092866;28;20032;-68
2022/01/05 02:55:50;;;;;;;36.30;19.90;;;;;;;;;;5093560;28;20020;-67
2022/01/05 02:58:17;;;;;;;28.15;16.52;;;;;;;;;;5094868;28;20020;-68
2022/01/05 03:00:43;;;;;;;29.25;16.27;;;;;;;;;;5094913;28;20024;-67
2022/01/05 03:03:10;;;;;;;30.65;14.50;;;;;;;;;;5094730;28;20487;-67
2022/01/05 03:05:36;;;;;;;30.40;15.32;;;;;;;;;;5094713;28;20084;-67
2022/01/05 03:08:03;;;;;;;26.63;14.10;;;;;;;;;;5094378;28;20115;-68
2022/01/05 03:10:29;;;;;;;24.83;14.15;;;;;;;;;;5094987;28;20036;-67
2022/01/05 03:12:55;;;;;;;25.70;14.02;;;;;;;;;;5094549;28;20473;-68
2022/01/05 03:15:21;;;;;;;24.63;13.70;;;;;;;;;;5094534;28;20059;-68
2022/01/05 03:17:48;;;;;;;24.75;14.30;;;;;;;;;;5094228;28;20028;-68
2022/01/05 03:20:17;;;;;;;27.15;13.82;;;;;;;;;;5092978;28;20170;-67
2022/01/05 03:22:43;;;;;;;34.53;14.98;;;;;;;;;;5094448;28;20028;-68
2022/01/05 03:25:16;;;;;;;27.05;14.52;;;;;;;;;;5094081;28;20102;-67
2022/01/05 03:27:49;;;;;;;29.58;15.20;;;;;;;;;;5094328;28;20028;-66
2022/01/05 03:30:19;;;;;;;27.48;15.35;;;;;;;;;;5094349;28;20028;-68
2022/01/05 03:33:09;;;;;;;32.38;13.50;;;;;;;;;;5093806;28;20576;-68
2022/01/05 03:35:37;;;;;;;27.15;14.88;;;;;;;;;;5094216;28;20415;-67
2022/01/05 03:38:04;;;;;;;23.90;13.40;;;;;;;;;;5094106;28;20457;-67
2022/01/05 03:40:31;;;;;;;23.25;13.88;;;;;;;;;;5094135;28;20029;-68
2022/01/05 03:42:57;;;;;;;25.90;13.65;;;;;;;;;;5094033;28;20036;-69
2022/01/05 03:45:24;;;;;;;22.60;12.85;;;;;;;;;;5094220;28;20032;-68
2022/01/05 03:47:50;;;;;;;25.85;11.63;;;;;;;;;;5093946;28;20484;-70
2022/01/05 03:50:16;;;;;;;26.10;12.85;;;;;;;;;;5092579;28;20487;-69
2022/01/05 03:52:42;;;;;;;22.83;12.60;;;;;;;;;;5093778;28;20036;-68
2022/01/05 03:55:09;;;;;;;22.52;11.57;;;;;;;;;;5092478;28;20024;-68
2022/01/05 03:57:35;;;;;;;20.52;10.88;;;;;;;;;;5092434;28;20202;-68
2022/01/05 04:00:01;;;;;;;21.83;11.35;;;;;;;;;;5093756;28;20103;-70
2022/01/05 04:02:29;;;;;;;20.63;11.40;;;;;;;;;;5093410;28;20028;-69
2022/01/05 04:04:55;;;;;;;23.60;12.43;;;;;;;;;;5092723;28;20052;-70
2022/01/05 04:07:21;;;;;;;23.27;11.35;;;;;;;;;;5093350;28;20430;-71
2022/01/05 04:09:47;;;;;;;23.17;12.43;;;;;;;;;;5093572;28;20127;-70
2022/01/05 04:12:14;;;;;;;21.10;11.32;;;;;;;;;;5093542;28;20102;-71
2022/01/05 04:14:40;;;;;;;22.45;11.68;;;;;;;;;;5093501;28;20028;-70
2022/01/05 04:17:06;;;;;;;23.95;13.27;;;;;;;;;;5093475;28;20618;-69
2022/01/05 04:19:33;;;;;;;22.38;13.23;;;;;;;;;;5092994;28;20504;-70
2022/01/05 04:21:59;;;;;;;23.02;13.38;;;;;;;;;;5093408;28;20024;-70
2022/01/05 04:24:25;;;;;;;24.13;14.65;;;;;;;;;;5093311;28;20533;-71
2022/01/05 04:26:51;;;;;;;21.52;13.07;;;;;;;;;;5093604;28;20044;-69
2022/01/05 04:29:18;;;;;;;15.95;10.43;;;;;;;;;;5092983;28;20081;-68
2022/01/05 04:31:45;;;;;;;17.85;9.07;;;;;;;;;;5093221;28;20032;-68
2022/01/05 04:34:12;;;;;;;17.95;9.82;;;;;;;;;;5091919;28;20486;-69
2022/01/05 04:36:38;;;;;;;16.00;9.32;;;;;;;;;;5091862;28;20031;-70
2022/01/05 04:39:04;;;;;;;13.10;7.93;;;;;;;;;;5093169;28;20034;-70
2022/01/05 04:41:30;;;;;;;17.13;8.38;;;;;;;;;;5091873;28;20078;-69
2022/01/05 04:43:56;;;;;;;15.25;8.13;;;;;;;;;;5093120;28;20051;-69
2022/01/05 04:46:23;;;;;;;15.80;8.20;;;;;;;;;;5093035;28;20035;-69
2022/01/05 04:48:49;;;;;;;15.40;8.15;;;;;;;;;;5093115;28;20024;-69
2022/01/05 04:51:15;;;;;;;22.85;8.88;;;;;;;;;;5093036;28;20461;-69
2022/01/05 04:53:42;;;;;;;13.90;7.15;;;;;;;;;;5093304;28;20032;-66
2022/01/05 04:56:08;;;;;;;12.93;7.53;;;;;;;;;;5093323;28;20114;-66
2022/01/05 04:58:34;;;;;;;14.82;8.77;;;;;;;;;;5093210;28;20035;-67
2022/01/05 05:01:00;;;;;;;13.40;7.68;;;;;;;;;;5093274;28;20024;-69
2022/01/05 05:03:26;;;;;;;16.90;10.00;;;;;;;;;;5092961;28;20024;-68
2022/01/05 05:05:53;;;;;;;18.05;10.07;;;;;;;;;;5092925;28;20111;-69
2022/01/05 05:08:19;;;;;;;21.90;10.95;;;;;;;;;;5092896;28;20077;-69
2022/01/05 05:10:45;;;;;;;17.60;9.00;;;;;;;;;;5091329;28;20131;-68
2022/01/05 05:13:13;;;;;;;14.88;8.25;;;;;;;;;;5092864;28;20099;-67
2022/01/05 05:15:40;;;;;;;12.60;7.32;;;;;;;;;;5093249;28;20523;-67
2022/01/05 05:18:06;;;;;;;13.43;7.18;;;;;;;;;;5096505;28;20492;-66
2022/01/05 05:20:33;;;;;;;14.98;8.20;;;;;;;;;;5096076;28;20071;-69
